Terminal Aerodrome Forecast
Issued by NWS

Home | Current Version | Previous Version | Text Only | Print | Product List | Glossary On
Versions: 1 2 3 4 5 6 7 8 9 10 11 12 13 14 15 16 17 18 19 20 21 22 23 24 25 26 27 28 29 30
000
FTUS41 KCTP 231139
TAFLNS
TAF
KLNS 231139Z 2312/2412 VRB03KT 3SM -RA BR VCSH OVC100
      TEMPO 2312/2313 22004KT 2SM RA BKN040 OVC070
     FM231300 20008KT 4SM -SHRA BR BKN025 OVC060
     FM231700 24013G23KT 6SM -SHRA HZ VCTS OVC025CB
     FM232200 23013G23KT 5SM -RA BR OVC025=

USA.gov is the U.S. government's official web portal to all federal, state and local government web resources and services.